sensor_id;sensor_type;location;lat;lon;timestamp;P1;durP1;ratioP1;P2;durP2;ratioP2
57577;SDS011;43413;-33.790;150.826;2022-08-19T00:01:56;3.38;;;0.80;;
57577;SDS011;43413;-33.790;150.826;2022-08-19T00:04:26;1.85;;;0.80;;
57577;SDS011;43413;-33.790;150.826;2022-08-19T00:06:54;2.83;;;0.77;;
57577;SDS011;43413;-33.790;150.826;2022-08-19T00:09:21;2.78;;;0.50;;
57577;SDS011;43413;-33.790;150.826;2022-08-19T00:11:49;3.65;;;0.60;;
57577;SDS011;43413;-33.790;150.826;2022-08-19T00:14:16;4.60;;;0.60;;
57577;SDS011;43413;-33.790;150.826;2022-08-19T00:16:45;4.88;;;0.70;;
57577;SDS011;43413;-33.790;150.826;2022-08-19T00:19:14;2.03;;;0.52;;
57577;SDS011;43413;-33.790;150.826;2022-08-19T00:21:41;1.73;;;0.60;;
57577;SDS011;43413;-33.790;150.826;2022-08-19T00:24:09;1.70;;;0.47;;
57577;SDS011;43413;-33.790;150.826;2022-08-19T00:26:37;0.80;;;0.40;;
57577;SDS011;43413;-33.790;150.826;2022-08-19T00:29:05;1.95;;;0.52;;
57577;SDS011;43413;-33.790;150.826;2022-08-19T00:31:32;3.33;;;0.60;;
57577;SDS011;43413;-33.790;150.826;2022-08-19T00:33:59;2.72;;;0.70;;
57577;SDS011;43413;-33.790;150.826;2022-08-19T00:36:26;1.33;;;0.70;;
57577;SDS011;43413;-33.790;150.826;2022-08-19T00:38:54;1.60;;;0.60;;
57577;SDS011;43413;-33.790;150.826;2022-08-19T00:41:22;1.52;;;0.60;;
57577;SDS011;43413;-33.790;150.826;2022-08-19T00:46:53;4.55;;;0.60;;
57577;SDS011;43413;-33.790;150.826;2022-08-19T00:51:48;1.38;;;0.60;;
57577;SDS011;43413;-33.790;150.826;2022-08-19T00:54:17;2.28;;;0.60;;
57577;SDS011;43413;-33.790;150.826;2022-08-19T00:56:44;4.32;;;0.60;;
57577;SDS011;43413;-33.790;150.826;2022-08-19T00:59:11;1.75;;;0.88;;
57577;SDS011;43413;-33.790;150.826;2022-08-19T01:01:40;1.23;;;0.40;;
57577;SDS011;43413;-33.790;150.826;2022-08-19T01:04:07;0.32;;;0.20;;
57577;SDS011;43413;-33.790;150.826;2022-08-19T01:06:35;1.25;;;0.50;;
57577;SDS011;43413;-33.790;150.826;2022-08-19T01:09:03;0.70;;;0.30;;
57577;SDS011;43413;-33.790;150.826;2022-08-19T01:11:31;1.17;;;0.50;;
57577;SDS011;43413;-33.790;150.826;2022-08-19T01:14:00;0.30;;;0.28;;
57577;SDS011;43413;-33.790;150.826;2022-08-19T01:16:27;1.55;;;0.30;;
57577;SDS011;43413;-33.790;150.826;2022-08-19T01:18:55;1.05;;;0.28;;
57577;SDS011;43413;-33.790;150.826;2022-08-19T01:23:49;2.10;;;0.47;;
57577;SDS011;43413;-33.790;150.826;2022-08-19T01:26:19;0.77;;;0.30;;
57577;SDS011;43413;-33.790;150.826;2022-08-19T01:28:48;0.70;;;0.30;;
57577;SDS011;43413;-33.790;150.826;2022-08-19T01:31:20;1.73;;;0.43;;
57577;SDS011;43413;-33.790;150.826;2022-08-19T01:33:49;0.63;;;0.40;;
57577;SDS011;43413;-33.790;150.826;2022-08-19T01:36:22;0.93;;;0.30;;
57577;SDS011;43413;-33.790;150.826;2022-08-19T01:38:51;0.20;;;0.20;;
57577;SDS011;43413;-33.790;150.826;2022-08-19T01:41:18;1.98;;;0.20;;
57577;SDS011;43413;-33.790;150.826;2022-08-19T01:43:45;1.27;;;0.30;;
57577;SDS011;43413;-33.790;150.826;2022-08-19T01:46:12;1.67;;;0.40;;
57577;SDS011;43413;-33.790;150.826;2022-08-19T01:48:40;0.45;;;0.30;;
57577;SDS011;43413;-33.790;150.826;2022-08-19T01:51:08;1.98;;;0.30;;
57577;SDS011;43413;-33.790;150.826;2022-08-19T01:53:36;1.38;;;0.28;;
57577;SDS011;43413;-33.790;150.826;2022-08-19T01:56:04;2.03;;;0.40;;
57577;SDS011;43413;-33.790;150.826;2022-08-19T01:58:33;1.23;;;0.38;;
57577;SDS011;43413;-33.790;150.826;2022-08-19T02:01:02;1.42;;;0.45;;
57577;SDS011;43413;-33.790;150.826;2022-08-19T02:03:30;1.73;;;0.50;;
57577;SDS011;43413;-33.790;150.826;2022-08-19T02:06:01;1.20;;;0.32;;
57577;SDS011;43413;-33.790;150.826;2022-08-19T02:08:31;0.63;;;0.20;;
57577;SDS011;43413;-33.790;150.826;2022-08-19T02:10:59;1.48;;;0.30;;
57577;SDS011;43413;-33.790;150.826;2022-08-19T02:13:26;1.08;;;0.30;;
57577;SDS011;43413;-33.790;150.826;2022-08-19T02:15:53;0.82;;;0.17;;
57577;SDS011;43413;-33.790;150.826;2022-08-19T02:18:20;0.45;;;0.20;;
57577;SDS011;43413;-33.790;150.826;2022-08-19T02:20:47;1.85;;;0.20;;
57577;SDS011;43413;-33.790;150.826;2022-08-19T02:23:15;0.70;;;0.10;;
57577;SDS011;43413;-33.790;150.826;2022-08-19T02:25:44;0.82;;;0.30;;
57577;SDS011;43413;-33.790;150.826;2022-08-19T02:28:14;3.63;;;0.47;;
57577;SDS011;43413;-33.790;150.826;2022-08-19T02:30:41;2.97;;;0.40;;
57577;SDS011;43413;-33.790;150.826;2022-08-19T02:33:09;1.30;;;0.20;;
57577;SDS011;43413;-33.790;150.826;2022-08-19T02:35:36;0.88;;;0.13;;
57577;SDS011;43413;-33.790;150.826;2022-08-19T02:38:03;1.85;;;0.20;;
57577;SDS011;43413;-33.790;150.826;2022-08-19T02:40:49;0.30;;;0.28;;
57577;SDS011;43413;-33.790;150.826;2022-08-19T02:43:20;1.75;;;0.40;;
57577;SDS011;43413;-33.790;150.826;2022-08-19T02:45:49;0.43;;;0.20;;
57577;SDS011;43413;-33.790;150.826;2022-08-19T02:48:17;1.70;;;0.30;;
57577;SDS011;43413;-33.790;150.826;2022-08-19T02:50:45;0.35;;;0.17;;
57577;SDS011;43413;-33.790;150.826;2022-08-19T02:53:12;12.40;;;2.28;;
57577;SDS011;43413;-33.790;150.826;2022-08-19T02:55:43;1.60;;;0.38;;
57577;SDS011;43413;-33.790;150.826;2022-08-19T02:58:11;1.02;;;0.30;;
57577;SDS011;43413;-33.790;150.826;2022-08-19T03:00:42;2.25;;;0.30;;
57577;SDS011;43413;-33.790;150.826;2022-08-19T03:03:10;0.10;;;0.10;;
57577;SDS011;43413;-33.790;150.826;2022-08-19T03:05:37;0.40;;;0.20;;
57577;SDS011;43413;-33.790;150.826;2022-08-19T03:08:05;1.40;;;0.55;;
57577;SDS011;43413;-33.790;150.826;2022-08-19T03:10:32;1.38;;;0.40;;
57577;SDS011;43413;-33.790;150.826;2022-08-19T03:12:59;3.65;;;0.55;;
57577;SDS011;43413;-33.790;150.826;2022-08-19T03:15:26;0.60;;;0.13;;
57577;SDS011;43413;-33.790;150.826;2022-08-19T03:17:53;0.47;;;0.10;;
57577;SDS011;43413;-33.790;150.826;2022-08-19T03:20:21;1.23;;;0.30;;
57577;SDS011;43413;-33.790;150.826;2022-08-19T03:22:48;4.18;;;0.90;;
57577;SDS011;43413;-33.790;150.826;2022-08-19T03:25:15;1.02;;;0.30;;
57577;SDS011;43413;-33.790;150.826;2022-08-19T03:27:42;0.32;;;0.10;;
57577;SDS011;43413;-33.790;150.826;2022-08-19T03:30:10;0.13;;;0.10;;
57577;SDS011;43413;-33.790;150.826;2022-08-19T03:32:37;2.63;;;0.60;;
57577;SDS011;43413;-33.790;150.826;2022-08-19T03:35:04;0.30;;;0.13;;
57577;SDS011;43413;-33.790;150.826;2022-08-19T03:37:31;1.95;;;0.10;;
57577;SDS011;43413;-33.790;150.826;2022-08-19T03:39:59;0.10;;;0.10;;
57577;SDS011;43413;-33.790;150.826;2022-08-19T03:42:28;0.55;;;0.28;;
57577;SDS011;43413;-33.790;150.826;2022-08-19T03:44:55;19.73;;;1.98;;
57577;SDS011;43413;-33.790;150.826;2022-08-19T03:47:23;36.40;;;4.47;;
57577;SDS011;43413;-33.790;150.826;2022-08-19T03:49:51;32.15;;;3.13;;
57577;SDS011;43413;-33.790;150.826;2022-08-19T03:52:18;16.48;;;1.85;;
57577;SDS011;43413;-33.790;150.826;2022-08-19T03:54:45;16.17;;;1.20;;
57577;SDS011;43413;-33.790;150.826;2022-08-19T03:57:12;16.10;;;1.80;;
57577;SDS011;43413;-33.790;150.826;2022-08-19T03:59:39;13.13;;;1.40;;
57577;SDS011;43413;-33.790;150.826;2022-08-19T04:02:08;10.98;;;1.15;;
57577;SDS011;43413;-33.790;150.826;2022-08-19T04:04:37;13.18;;;1.20;;
57577;SDS011;43413;-33.790;150.826;2022-08-19T04:07:04;4.53;;;0.82;;
57577;SDS011;43413;-33.790;150.826;2022-08-19T04:09:32;8.07;;;0.93;;
57577;SDS011;43413;-33.790;150.826;2022-08-19T04:12:01;7.43;;;1.20;;
57577;SDS011;43413;-33.790;150.826;2022-08-19T04:14:31;19.02;;;1.85;;
57577;SDS011;43413;-33.790;150.826;2022-08-19T04:16:59;5.90;;;1.25;;
57577;SDS011;43413;-33.790;150.826;2022-08-19T04:19:30;4.15;;;0.55;;
57577;SDS011;43413;-33.790;150.826;2022-08-19T04:21:57;3.85;;;0.40;;
57577;SDS011;43413;-33.790;150.826;2022-08-19T04:24:25;1.08;;;0.22;;
57577;SDS011;43413;-33.790;150.826;2022-08-19T04:26:52;1.45;;;0.10;;
57577;SDS011;43413;-33.790;150.826;2022-08-19T04:29:22;1.15;;;0.30;;
57577;SDS011;43413;-33.790;150.826;2022-08-19T04:31:51;0.35;;;0.20;;
57577;SDS011;43413;-33.790;150.826;2022-08-19T04:34:19;1.20;;;0.30;;
57577;SDS011;43413;-33.790;150.826;2022-08-19T04:36:47;0.52;;;0.15;;
57577;SDS011;43413;-33.790;150.826;2022-08-19T04:39:17;3.13;;;0.40;;
57577;SDS011;43413;-33.790;150.826;2022-08-19T04:41:45;1.63;;;0.45;;
57577;SDS011;43413;-33.790;150.826;2022-08-19T04:44:31;4.60;;;0.43;;
57577;SDS011;43413;-33.790;150.826;2022-08-19T04:46:58;0.90;;;0.17;;
57577;SDS011;43413;-33.790;150.826;2022-08-19T04:49:25;0.60;;;0.30;;
57577;SDS011;43413;-33.790;150.826;2022-08-19T04:51:53;1.23;;;0.17;;
57577;SDS011;43413;-33.790;150.826;2022-08-19T04:54:22;0.20;;;0.10;;
57577;SDS011;43413;-33.790;150.826;2022-08-19T04:56:51;0.90;;;0.32;;
57577;SDS011;43413;-33.790;150.826;2022-08-19T04:59:19;0.30;;;0.20;;
57577;SDS011;43413;-33.790;150.826;2022-08-19T05:01:46;0.47;;;0.30;;
57577;SDS011;43413;-33.790;150.826;2022-08-19T05:04:16;0.00;;;0.00;;
57577;SDS011;43413;-33.790;150.826;2022-08-19T05:06:43;0.05;;;0.05;;
57577;SDS011;43413;-33.790;150.826;2022-08-19T05:09:10;0.20;;;0.10;;
57577;SDS011;43413;-33.790;150.826;2022-08-19T05:11:37;0.25;;;0.10;;
57577;SDS011;43413;-33.790;150.826;2022-08-19T05:14:05;0.82;;;0.20;;
57577;SDS011;43413;-33.790;150.826;2022-08-19T05:16:33;0.20;;;0.10;;
57577;SDS011;43413;-33.790;150.826;2022-08-19T05:19:00;0.10;;;0.10;;
57577;SDS011;43413;-33.790;150.826;2022-08-19T05:21:45;0.73;;;0.20;;
57577;SDS011;43413;-33.790;150.826;2022-08-19T05:24:31;0.30;;;0.00;;
57577;SDS011;43413;-33.790;150.826;2022-08-19T05:27:01;0.40;;;0.03;;
57577;SDS011;43413;-33.790;150.826;2022-08-19T05:29:29;0.32;;;0.10;;
57577;SDS011;43413;-33.790;150.826;2022-08-19T05:31:59;4.05;;;0.20;;
57577;SDS011;43413;-33.790;150.826;2022-08-19T05:34:27;10.27;;;0.52;;
57577;SDS011;43413;-33.790;150.826;2022-08-19T05:36:58;7.60;;;0.40;;
57577;SDS011;43413;-33.790;150.826;2022-08-19T05:39:26;2.65;;;0.20;;
57577;SDS011;43413;-33.790;150.826;2022-08-19T05:41:56;4.32;;;0.40;;
57577;SDS011;43413;-33.790;150.826;2022-08-19T05:44:24;3.38;;;0.30;;
57577;SDS011;43413;-33.790;150.826;2022-08-19T05:46:52;4.75;;;0.47;;
57577;SDS011;43413;-33.790;150.826;2022-08-19T05:49:21;1.73;;;0.40;;
57577;SDS011;43413;-33.790;150.826;2022-08-19T05:51:48;1.75;;;0.15;;
57577;SDS011;43413;-33.790;150.826;2022-08-19T05:54:25;2.25;;;0.20;;
57577;SDS011;43413;-33.790;150.826;2022-08-19T05:56:53;2.33;;;0.20;;
57577;SDS011;43413;-33.790;150.826;2022-08-19T05:59:20;1.55;;;0.13;;
57577;SDS011;43413;-33.790;150.826;2022-08-19T06:01:48;2.58;;;0.20;;
57577;SDS011;43413;-33.790;150.826;2022-08-19T06:04:21;8.48;;;0.52;;
57577;SDS011;43413;-33.790;150.826;2022-08-19T06:06:48;15.18;;;1.98;;
57577;SDS011;43413;-33.790;150.826;2022-08-19T06:09:17;13.80;;;3.10;;
57577;SDS011;43413;-33.790;150.826;2022-08-19T06:11:45;4.72;;;0.43;;
57577;SDS011;43413;-33.790;150.826;2022-08-19T06:14:17;1.65;;;0.20;;
57577;SDS011;43413;-33.790;150.826;2022-08-19T06:16:46;0.10;;;0.00;;
57577;SDS011;43413;-33.790;150.826;2022-08-19T06:19:15;0.28;;;0.10;;
57577;SDS011;43413;-33.790;150.826;2022-08-19T06:21:43;1.92;;;0.20;;
57577;SDS011;43413;-33.790;150.826;2022-08-19T06:24:12;2.80;;;0.10;;
57577;SDS011;43413;-33.790;150.826;2022-08-19T06:26:41;0.73;;;0.20;;
57577;SDS011;43413;-33.790;150.826;2022-08-19T06:29:09;0.93;;;0.28;;
57577;SDS011;43413;-33.790;150.826;2022-08-19T07:16:30;1.05;;;0.30;;
57577;SDS011;43413;-33.790;150.826;2022-08-19T07:18:57;2.05;;;0.35;;
57577;SDS011;43413;-33.790;150.826;2022-08-19T07:21:26;0.55;;;0.30;;
57577;SDS011;43413;-33.790;150.826;2022-08-19T07:23:54;1.52;;;0.30;;
57577;SDS011;43413;-33.790;150.826;2022-08-19T07:26:23;2.22;;;0.40;;
57577;SDS011;43413;-33.790;150.826;2022-08-19T07:28:50;2.30;;;0.30;;
57577;SDS011;43413;-33.790;150.826;2022-08-19T07:31:19;2.40;;;0.52;;
57577;SDS011;43413;-33.790;150.826;2022-08-19T07:33:47;3.00;;;0.52;;
57577;SDS011;43413;-33.790;150.826;2022-08-19T07:36:15;1.50;;;0.55;;
57577;SDS011;43413;-33.790;150.826;2022-08-19T07:38:44;0.93;;;0.40;;
57577;SDS011;43413;-33.790;150.826;2022-08-19T07:41:14;1.63;;;0.57;;
57577;SDS011;43413;-33.790;150.826;2022-08-19T07:43:42;4.07;;;0.88;;
57577;SDS011;43413;-33.790;150.826;2022-08-19T07:46:10;3.47;;;0.70;;
57577;SDS011;43413;-33.790;150.826;2022-08-19T07:48:39;1.73;;;0.43;;
57577;SDS011;43413;-33.790;150.826;2022-08-19T07:51:07;1.80;;;0.50;;
57577;SDS011;43413;-33.790;150.826;2022-08-19T07:53:35;3.22;;;0.68;;
57577;SDS011;43413;-33.790;150.826;2022-08-19T07:56:02;3.00;;;0.95;;
57577;SDS011;43413;-33.790;150.826;2022-08-19T07:58:31;2.38;;;0.93;;
57577;SDS011;43413;-33.790;150.826;2022-08-19T08:00:59;1.75;;;0.63;;
57577;SDS011;43413;-33.790;150.826;2022-08-19T08:03:27;2.67;;;0.80;;
57577;SDS011;43413;-33.790;150.826;2022-08-19T08:08:57;2.20;;;0.70;;
57577;SDS011;43413;-33.790;150.826;2022-08-19T08:11:58;1.38;;;0.70;;
57577;SDS011;43413;-33.790;150.826;2022-08-19T08:14:33;1.80;;;0.68;;
57577;SDS011;43413;-33.790;150.826;2022-08-19T08:17:02;2.08;;;0.40;;
57577;SDS011;43413;-33.790;150.826;2022-08-19T08:19:33;1.85;;;0.73;;
57577;SDS011;43413;-33.790;150.826;2022-08-19T08:22:01;1.30;;;0.70;;
57577;SDS011;43413;-33.790;150.826;2022-08-19T08:24:29;2.85;;;0.90;;
57577;SDS011;43413;-33.790;150.826;2022-08-19T08:26:58;3.53;;;0.90;;
57577;SDS011;43413;-33.790;150.826;2022-08-19T08:29:28;2.78;;;0.80;;
57577;SDS011;43413;-33.790;150.826;2022-08-19T08:31:56;3.00;;;0.95;;
57577;SDS011;43413;-33.790;150.826;2022-08-19T08:34:23;2.80;;;0.80;;
57577;SDS011;43413;-33.790;150.826;2022-08-19T08:36:50;1.70;;;0.80;;
57577;SDS011;43413;-33.790;150.826;2022-08-19T08:39:19;3.22;;;0.80;;
57577;SDS011;43413;-33.790;150.826;2022-08-19T08:44:15;2.63;;;0.80;;
57577;SDS011;43413;-33.790;150.826;2022-08-19T08:46:48;2.15;;;0.90;;
57577;SDS011;43413;-33.790;150.826;2022-08-19T08:51:48;3.72;;;0.95;;
57577;SDS011;43413;-33.790;150.826;2022-08-19T08:54:20;4.00;;;0.90;;
57577;SDS011;43413;-33.790;150.826;2022-08-19T08:56:47;5.55;;;1.50;;
57577;SDS011;43413;-33.790;150.826;2022-08-19T08:59:18;2.05;;;0.73;;
57577;SDS011;43413;-33.790;150.826;2022-08-19T09:01:47;4.18;;;1.00;;
57577;SDS011;43413;-33.790;150.826;2022-08-19T09:04:14;4.28;;;0.80;;
57577;SDS011;43413;-33.790;150.826;2022-08-19T09:09:37;2.53;;;0.70;;
57577;SDS011;43413;-33.790;150.826;2022-08-19T09:17:22;2.42;;;0.80;;
57577;SDS011;43413;-33.790;150.826;2022-08-19T09:19:54;3.50;;;0.85;;
57577;SDS011;43413;-33.790;150.826;2022-08-19T09:22:21;1.50;;;0.60;;
57577;SDS011;43413;-33.790;150.826;2022-08-19T09:24:49;3.83;;;0.95;;
57577;SDS011;43413;-33.790;150.826;2022-08-19T09:27:19;2.35;;;0.90;;
57577;SDS011;43413;-33.790;150.826;2022-08-19T09:29:49;3.38;;;0.90;;
57577;SDS011;43413;-33.790;150.826;2022-08-19T09:32:17;4.43;;;0.90;;
57577;SDS011;43413;-33.790;150.826;2022-08-19T09:34:44;2.58;;;0.82;;
57577;SDS011;43413;-33.790;150.826;2022-08-19T09:37:11;2.88;;;0.98;;
57577;SDS011;43413;-33.790;150.826;2022-08-19T09:39:39;4.18;;;0.93;;
57577;SDS011;43413;-33.790;150.826;2022-08-19T09:42:07;2.83;;;1.15;;
57577;SDS011;43413;-33.790;150.826;2022-08-19T09:44:39;2.25;;;1.10;;
57577;SDS011;43413;-33.790;150.826;2022-08-19T09:47:07;4.43;;;1.10;;
57577;SDS011;43413;-33.790;150.826;2022-08-19T09:49:34;2.50;;;1.02;;
57577;SDS011;43413;-33.790;150.826;2022-08-19T09:52:03;4.88;;;1.27;;
57577;SDS011;43413;-33.790;150.826;2022-08-19T09:54:30;2.88;;;1.08;;
57577;SDS011;43413;-33.790;150.826;2022-08-19T09:56:58;3.85;;;1.00;;
57577;SDS011;43413;-33.790;150.826;2022-08-19T09:59:28;3.60;;;1.30;;
57577;SDS011;43413;-33.790;150.826;2022-08-19T10:01:55;4.30;;;1.20;;
57577;SDS011;43413;-33.790;150.826;2022-08-19T10:04:22;5.03;;;1.00;;
57577;SDS011;43413;-33.790;150.826;2022-08-19T10:07:09;4.90;;;1.23;;
57577;SDS011;43413;-33.790;150.826;2022-08-19T10:09:36;3.58;;;1.35;;
57577;SDS011;43413;-33.790;150.826;2022-08-19T10:12:04;5.60;;;1.13;;
57577;SDS011;43413;-33.790;150.826;2022-08-19T10:14:31;5.18;;;1.10;;
57577;SDS011;43413;-33.790;150.826;2022-08-19T10:17:01;5.50;;;1.30;;
57577;SDS011;43413;-33.790;150.826;2022-08-19T10:19:29;27.13;;;2.70;;
57577;SDS011;43413;-33.790;150.826;2022-08-19T10:22:04;26.73;;;2.83;;
57577;SDS011;43413;-33.790;150.826;2022-08-19T10:24:32;21.08;;;2.95;;
57577;SDS011;43413;-33.790;150.826;2022-08-19T10:27:00;18.65;;;2.72;;
57577;SDS011;43413;-33.790;150.826;2022-08-19T10:29:31;29.83;;;3.78;;
57577;SDS011;43413;-33.790;150.826;2022-08-19T10:32:00;32.33;;;4.10;;
57577;SDS011;43413;-33.790;150.826;2022-08-19T10:34:28;21.38;;;3.00;;
57577;SDS011;43413;-33.790;150.826;2022-08-19T10:36:56;28.42;;;4.03;;
57577;SDS011;43413;-33.790;150.826;2022-08-19T10:39:24;15.73;;;3.17;;
57577;SDS011;43413;-33.790;150.826;2022-08-19T10:41:53;22.95;;;3.17;;
57577;SDS011;43413;-33.790;150.826;2022-08-19T10:44:22;20.88;;;2.75;;
57577;SDS011;43413;-33.790;150.826;2022-08-19T10:46:49;18.40;;;2.63;;
57577;SDS011;43413;-33.790;150.826;2022-08-19T10:49:17;14.70;;;2.60;;
57577;SDS011;43413;-33.790;150.826;2022-08-19T10:51:49;21.25;;;2.65;;
57577;SDS011;43413;-33.790;150.826;2022-08-19T10:54:35;10.00;;;1.80;;
57577;SDS011;43413;-33.790;150.826;2022-08-19T10:57:20;12.30;;;1.88;;
57577;SDS011;43413;-33.790;150.826;2022-08-19T10:59:52;6.28;;;1.63;;
57577;SDS011;43413;-33.790;150.826;2022-08-19T11:02:20;10.98;;;1.85;;
57577;SDS011;43413;-33.790;150.826;2022-08-19T11:04:47;7.32;;;1.55;;
57577;SDS011;43413;-33.790;150.826;2022-08-19T11:07:17;6.10;;;1.42;;
57577;SDS011;43413;-33.790;150.826;2022-08-19T11:09:44;5.07;;;1.20;;
57577;SDS011;43413;-33.790;150.826;2022-08-19T11:12:12;9.90;;;1.33;;
57577;SDS011;43413;-33.790;150.826;2022-08-19T11:14:40;8.40;;;1.50;;
57577;SDS011;43413;-33.790;150.826;2022-08-19T11:17:07;9.23;;;1.67;;
57577;SDS011;43413;-33.790;150.826;2022-08-19T11:19:36;6.78;;;1.70;;
57577;SDS011;43413;-33.790;150.826;2022-08-19T11:22:03;8.75;;;2.40;;
57577;SDS011;43413;-33.790;150.826;2022-08-19T11:24:31;13.52;;;2.33;;
57577;SDS011;43413;-33.790;150.826;2022-08-19T11:27:00;8.60;;;2.45;;
57577;SDS011;43413;-33.790;150.826;2022-08-19T11:29:29;8.43;;;2.33;;
57577;SDS011;43413;-33.790;150.826;2022-08-19T11:31:57;12.63;;;2.70;;
57577;SDS011;43413;-33.790;150.826;2022-08-19T11:34:27;22.67;;;4.90;;
57577;SDS011;43413;-33.790;150.826;2022-08-19T11:36:55;14.95;;;4.10;;
57577;SDS011;43413;-33.790;150.826;2022-08-19T11:39:26;9.55;;;3.38;;
57577;SDS011;43413;-33.790;150.826;2022-08-19T11:41:54;11.88;;;3.55;;
57577;SDS011;43413;-33.790;150.826;2022-08-19T11:44:21;9.93;;;2.72;;
57577;SDS011;43413;-33.790;150.826;2022-08-19T11:46:48;8.15;;;2.65;;
57577;SDS011;43413;-33.790;150.826;2022-08-19T11:49:17;7.60;;;2.78;;
57577;SDS011;43413;-33.790;150.826;2022-08-19T11:51:47;4.50;;;1.95;;
57577;SDS011;43413;-33.790;150.826;2022-08-19T11:54:16;6.90;;;2.67;;
57577;SDS011;43413;-33.790;150.826;2022-08-19T11:56:43;7.93;;;2.65;;
57577;SDS011;43413;-33.790;150.826;2022-08-19T11:59:11;6.00;;;2.30;;
57577;SDS011;43413;-33.790;150.826;2022-08-19T12:01:38;5.82;;;2.10;;
57577;SDS011;43413;-33.790;150.826;2022-08-19T12:04:07;7.65;;;2.50;;
57577;SDS011;43413;-33.790;150.826;2022-08-19T12:06:36;11.05;;;3.63;;
57577;SDS011;43413;-33.790;150.826;2022-08-19T12:09:04;6.25;;;2.33;;
57577;SDS011;43413;-33.790;150.826;2022-08-19T12:11:32;7.97;;;2.22;;
57577;SDS011;43413;-33.790;150.826;2022-08-19T12:14:00;8.40;;;2.70;;
57577;SDS011;43413;-33.790;150.826;2022-08-19T12:16:29;7.35;;;2.60;;
57577;SDS011;43413;-33.790;150.826;2022-08-19T12:18:57;5.78;;;2.30;;
57577;SDS011;43413;-33.790;150.826;2022-08-19T12:21:29;5.57;;;2.28;;
57577;SDS011;43413;-33.790;150.826;2022-08-19T12:23:57;6.10;;;2.80;;
57577;SDS011;43413;-33.790;150.826;2022-08-19T12:26:25;7.25;;;2.58;;
57577;SDS011;43413;-33.790;150.826;2022-08-19T12:28:52;7.28;;;2.65;;
57577;SDS011;43413;-33.790;150.826;2022-08-19T12:31:19;8.65;;;2.10;;
57577;SDS011;43413;-33.790;150.826;2022-08-19T12:33:47;7.82;;;2.10;;
57577;SDS011;43413;-33.790;150.826;2022-08-19T12:36:15;7.03;;;1.92;;
57577;SDS011;43413;-33.790;150.826;2022-08-19T12:38:43;5.75;;;1.80;;
57577;SDS011;43413;-33.790;150.826;2022-08-19T12:41:12;4.53;;;1.35;;
57577;SDS011;43413;-33.790;150.826;2022-08-19T12:43:39;4.82;;;1.70;;
57577;SDS011;43413;-33.790;150.826;2022-08-19T12:46:07;8.05;;;2.08;;
57577;SDS011;43413;-33.790;150.826;2022-08-19T12:48:34;3.92;;;1.70;;
57577;SDS011;43413;-33.790;150.826;2022-08-19T12:51:12;4.57;;;1.88;;
57577;SDS011;43413;-33.790;150.826;2022-08-19T12:53:40;4.57;;;1.63;;
57577;SDS011;43413;-33.790;150.826;2022-08-19T12:56:08;4.75;;;1.80;;
57577;SDS011;43413;-33.790;150.826;2022-08-19T12:58:36;3.67;;;1.60;;
57577;SDS011;43413;-33.790;150.826;2022-08-19T13:01:07;6.60;;;1.85;;
57577;SDS011;43413;-33.790;150.826;2022-08-19T13:03:34;7.97;;;2.00;;
57577;SDS011;43413;-33.790;150.826;2022-08-19T13:06:02;5.32;;;1.65;;
57577;SDS011;43413;-33.790;150.826;2022-08-19T13:08:29;4.43;;;1.65;;
57577;SDS011;43413;-33.790;150.826;2022-08-19T13:10:56;5.82;;;1.90;;
57577;SDS011;43413;-33.790;150.826;2022-08-19T13:13:23;5.47;;;1.90;;
57577;SDS011;43413;-33.790;150.826;2022-08-19T13:15:51;6.85;;;2.08;;
57577;SDS011;43413;-33.790;150.826;2022-08-19T13:18:18;6.25;;;2.15;;
57577;SDS011;43413;-33.790;150.826;2022-08-19T13:20:45;5.97;;;2.58;;
57577;SDS011;43413;-33.790;150.826;2022-08-19T13:23:13;6.00;;;2.10;;
57577;SDS011;43413;-33.790;150.826;2022-08-19T13:25:40;5.35;;;1.92;;
57577;SDS011;43413;-33.790;150.826;2022-08-19T13:28:07;7.80;;;2.95;;
57577;SDS011;43413;-33.790;150.826;2022-08-19T13:30:34;6.63;;;2.20;;
57577;SDS011;43413;-33.790;150.826;2022-08-19T13:33:19;9.13;;;3.07;;
57577;SDS011;43413;-33.790;150.826;2022-08-19T13:35:48;6.82;;;3.50;;
57577;SDS011;43413;-33.790;150.826;2022-08-19T13:38:21;15.60;;;5.78;;
57577;SDS011;43413;-33.790;150.826;2022-08-19T13:40:49;12.32;;;6.15;;
57577;SDS011;43413;-33.790;150.826;2022-08-19T13:43:18;9.85;;;4.88;;
57577;SDS011;43413;-33.790;150.826;2022-08-19T13:45:47;10.43;;;4.75;;
57577;SDS011;43413;-33.790;150.826;2022-08-19T13:48:15;11.68;;;3.95;;
57577;SDS011;43413;-33.790;150.826;2022-08-19T13:50:44;8.63;;;4.20;;
57577;SDS011;43413;-33.790;150.826;2022-08-19T13:53:13;8.57;;;4.10;;
57577;SDS011;43413;-33.790;150.826;2022-08-19T13:55:41;6.45;;;3.03;;
57577;SDS011;43413;-33.790;150.826;2022-08-19T13:58:09;7.18;;;3.33;;
57577;SDS011;43413;-33.790;150.826;2022-08-19T14:00:38;7.25;;;3.47;;
57577;SDS011;43413;-33.790;150.826;2022-08-19T14:03:05;6.10;;;3.30;;
57577;SDS011;43413;-33.790;150.826;2022-08-19T14:05:34;6.95;;;3.30;;
57577;SDS011;43413;-33.790;150.826;2022-08-19T14:08:01;7.50;;;2.80;;
57577;SDS011;43413;-33.790;150.826;2022-08-19T14:10:29;9.13;;;2.83;;
57577;SDS011;43413;-33.790;150.826;2022-08-19T14:12:58;6.88;;;3.03;;
57577;SDS011;43413;-33.790;150.826;2022-08-19T14:15:25;6.50;;;2.90;;
57577;SDS011;43413;-33.790;150.826;2022-08-19T14:17:53;5.18;;;1.92;;
57577;SDS011;43413;-33.790;150.826;2022-08-19T14:20:20;7.10;;;2.10;;
57577;SDS011;43413;-33.790;150.826;2022-08-19T14:22:48;8.23;;;2.33;;
57577;SDS011;43413;-33.790;150.826;2022-08-19T14:25:17;7.28;;;2.08;;
57577;SDS011;43413;-33.790;150.826;2022-08-19T14:27:45;6.82;;;1.58;;
57577;SDS011;43413;-33.790;150.826;2022-08-19T14:30:14;6.15;;;2.03;;
57577;SDS011;43413;-33.790;150.826;2022-08-19T14:32:42;4.45;;;1.63;;
57577;SDS011;43413;-33.790;150.826;2022-08-19T14:35:09;4.40;;;2.00;;
57577;SDS011;43413;-33.790;150.826;2022-08-19T14:37:38;4.63;;;1.60;;
57577;SDS011;43413;-33.790;150.826;2022-08-19T14:40:05;5.45;;;1.73;;
57577;SDS011;43413;-33.790;150.826;2022-08-19T14:42:33;4.95;;;2.15;;
57577;SDS011;43413;-33.790;150.826;2022-08-19T14:45:00;3.92;;;1.80;;
57577;SDS011;43413;-33.790;150.826;2022-08-19T14:47:27;5.05;;;2.38;;
57577;SDS011;43413;-33.790;150.826;2022-08-19T14:49:54;7.47;;;2.58;;
57577;SDS011;43413;-33.790;150.826;2022-08-19T14:52:22;11.40;;;2.58;;
57577;SDS011;43413;-33.790;150.826;2022-08-19T14:54:49;8.40;;;3.72;;
57577;SDS011;43413;-33.790;150.826;2022-08-19T14:57:16;7.75;;;3.80;;
57577;SDS011;43413;-33.790;150.826;2022-08-19T14:59:44;9.07;;;3.42;;
57577;SDS011;43413;-33.790;150.826;2022-08-19T15:02:11;6.80;;;3.17;;
57577;SDS011;43413;-33.790;150.826;2022-08-19T15:04:39;8.07;;;3.28;;
57577;SDS011;43413;-33.790;150.826;2022-08-19T15:07:06;9.07;;;3.67;;
57577;SDS011;43413;-33.790;150.826;2022-08-19T15:09:33;13.95;;;5.30;;
57577;SDS011;43413;-33.790;150.826;2022-08-19T15:12:01;13.15;;;5.50;;
57577;SDS011;43413;-33.790;150.826;2022-08-19T15:14:28;14.30;;;5.53;;
57577;SDS011;43413;-33.790;150.826;2022-08-19T15:17:03;12.27;;;5.60;;
57577;SDS011;43413;-33.790;150.826;2022-08-19T15:19:31;14.45;;;6.32;;
57577;SDS011;43413;-33.790;150.826;2022-08-19T15:22:01;9.65;;;5.20;;
57577;SDS011;43413;-33.790;150.826;2022-08-19T15:24:28;9.23;;;5.47;;